createdAt,value
2022-11-17T00:01:24.640Z,97111.56
2022-11-17T00:03:51.974Z,97116.06
2022-11-17T00:06:21.762Z,97116.06
2022-11-17T00:08:48.933Z,97117.13
2022-11-17T00:11:15.440Z,97113.25
2022-11-17T00:14:00.481Z,97111.81
2022-11-17T00:16:27.088Z,97098.59
2022-11-17T00:19:12.548Z,97091.19
2022-11-17T00:21:38.956Z,97097.72
2022-11-17T00:24:05.725Z,97090.16
2022-11-17T00:26:34.047Z,97092.28
2022-11-17T00:29:05.184Z,97091.50
2022-11-17T00:31:52.166Z,97078.81
2022-11-17T00:34:23.513Z,97088.19
2022-11-17T00:36:52.050Z,97085.66
2022-11-17T00:39:20.419Z,97081.53
2022-11-17T00:41:47.003Z,97094.06
2022-11-17T00:44:14.339Z,97078.53
2022-11-17T00:46:41.954Z,97082.88
2022-11-17T00:49:09.974Z,97085.16
2022-11-17T00:51:37.019Z,97087.41
2022-11-17T00:54:04.597Z,97085.88
2022-11-17T00:56:31.291Z,97077.81
2022-11-17T00:58:58.030Z,97080.00
2022-11-17T01:01:24.512Z,97075.28
2022-11-17T01:03:51.004Z,97080.03
2022-11-17T01:06:19.579Z,97079.00
2022-11-17T01:08:46.652Z,97065.78
2022-11-17T01:11:16.037Z,97067.34
2022-11-17T01:13:44.344Z,97062.38
2022-11-17T01:16:15.198Z,97066.28
2022-11-17T01:18:43.179Z,97062.72
2022-11-17T01:21:14.177Z,97059.91
2022-11-17T01:23:42.744Z,97060.81
2022-11-17T01:26:12.410Z,97057.47
2022-11-17T01:28:39.906Z,97051.03
2022-11-17T01:31:17.486Z,97037.72
2022-11-17T01:33:43.796Z,97034.31
2022-11-17T01:36:25.236Z,97036.41
2022-11-17T01:38:51.889Z,97031.50
2022-11-17T01:41:24.801Z,97033.31
2022-11-17T01:43:59.275Z,97036.19
2022-11-17T01:46:39.680Z,97033.59
2022-11-17T01:49:18.054Z,97032.09
2022-11-17T01:51:52.922Z,97026.38
2022-11-17T01:54:22.443Z,97033.94
2022-11-17T01:56:55.025Z,97026.38
2022-11-17T01:59:27.286Z,97018.63
2022-11-17T02:01:57.833Z,97017.91
2022-11-17T02:04:32.251Z,97017.09
2022-11-17T02:07:10.989Z,97000.50
2022-11-17T02:09:39.525Z,96989.34
2022-11-17T02:12:09.261Z,96982.28
2022-11-17T02:14:36.635Z,96987.19
2022-11-17T02:17:11.604Z,97000.50
2022-11-17T02:19:43.247Z,96984.16
2022-11-17T02:22:37.955Z,96975.09
2022-11-17T02:25:27.526Z,96980.84
2022-11-17T02:28:09.207Z,96975.91
2022-11-17T02:30:54.345Z,96977.72
2022-11-17T02:33:23.678Z,96971.19
2022-11-17T02:36:02.393Z,96972.22
2022-11-17T02:38:57.215Z,96968.88
2022-11-17T02:41:30.635Z,96961.63
2022-11-17T02:44:33.462Z,96963.22
2022-11-17T02:47:07.519Z,96956.19
2022-11-17T02:49:41.139Z,96955.69
2022-11-17T02:52:08.862Z,96953.34
2022-11-17T02:54:35.384Z,96939.53
2022-11-17T02:57:01.866Z,96943.22
2022-11-17T02:59:33.924Z,96940.09
2022-11-17T03:02:08.741Z,96927.84
2022-11-17T03:05:22.667Z,96916.16
2022-11-17T03:08:12.037Z,96912.53
2022-11-17T03:10:58.728Z,96905.44
2022-11-17T03:13:53.742Z,96899.41
2022-11-17T03:16:33.581Z,96890.63
2022-11-17T03:19:18.230Z,96888.84
2022-11-17T03:22:07.123Z,96881.06
2022-11-17T03:24:38.770Z,96880.56
2022-11-17T03:27:17.737Z,96868.81
2022-11-17T03:29:49.321Z,96876.09
2022-11-17T03:32:17.820Z,96884.94
2022-11-17T03:34:49.369Z,96890.16
2022-11-17T03:37:19.076Z,96888.09
2022-11-17T03:39:52.594Z,96892.28
2022-11-17T03:42:23.398Z,96891.28
2022-11-17T03:44:54.876Z,96890.22
2022-11-17T03:47:25.675Z,96888.38
2022-11-17T03:50:09.264Z,96885.50
2022-11-17T03:52:38.056Z,96876.69
2022-11-17T03:55:06.197Z,96884.22
2022-11-17T03:57:43.797Z,96882.69
2022-11-17T04:00:11.313Z,96874.13
2022-11-17T04:02:41.782Z,96866.31
2022-11-17T04:05:09.422Z,96857.19
2022-11-17T04:07:37.026Z,96844.22
2022-11-17T04:10:06.266Z,96846.81
2022-11-17T04:12:51.331Z,96848.09
2022-11-17T04:15:52.838Z,96851.22
2022-11-17T04:18:19.998Z,96848.88
2022-11-17T04:20:49.994Z,96841.84
2022-11-17T04:23:16.793Z,96838.97
2022-11-17T04:26:04.469Z,96841.03
2022-11-17T04:28:38.535Z,96834.56
2022-11-17T04:31:15.265Z,96824.94
2022-11-17T04:33:44.046Z,96823.41
2022-11-17T04:36:13.140Z,96817.66
2022-11-17T04:38:44.191Z,96821.03
2022-11-17T04:41:30.197Z,96810.06
2022-11-17T04:43:57.617Z,96802.53
2022-11-17T04:46:25.214Z,96803.56
2022-11-17T04:48:53.887Z,96793.41
2022-11-17T04:51:21.122Z,96776.28
2022-11-17T04:53:48.267Z,96786.41
2022-11-17T04:56:15.184Z,96797.63
2022-11-17T04:58:42.417Z,96797.84
2022-11-17T05:01:12.454Z,96800.50
2022-11-17T05:03:44.784Z,96796.53
2022-11-17T05:06:17.998Z,96800.72
2022-11-17T05:08:45.199Z,96809.56
2022-11-17T05:11:32.360Z,96808.78
2022-11-17T05:13:59.447Z,96800.22
2022-11-17T05:16:44.833Z,96802.28
2022-11-17T05:19:17.372Z,96795.03
2022-11-17T05:21:44.085Z,96796.06
2022-11-17T05:24:10.853Z,96801.78
2022-11-17T05:26:38.499Z,96798.94
2022-11-17T05:29:06.907Z,96802.56
2022-11-17T05:31:33.447Z,96803.34
2022-11-17T05:34:00.555Z,96807.22
2022-11-17T05:36:27.583Z,96810.09
2022-11-17T05:38:55.160Z,96807.50
2022-11-17T05:41:22.920Z,96806.72
2022-11-17T05:43:50.457Z,96799.97
2022-11-17T05:46:21.177Z,96801.28
2022-11-17T05:48:50.598Z,96802.56
2022-11-17T05:51:19.146Z,96800.75
2022-11-17T05:53:46.545Z,96811.69
2022-11-17T05:56:30.147Z,96820.28
2022-11-17T05:59:28.493Z,96804.91
2022-11-17T06:02:02.336Z,96797.88
2022-11-17T06:04:29.027Z,96804.41
2022-11-17T06:06:59.358Z,96797.88
2022-11-17T06:09:28.629Z,96794.75
2022-11-17T06:11:56.810Z,96807.50
2022-11-17T06:14:25.146Z,96808.78
2022-11-17T06:16:57.158Z,96806.44
2022-11-17T06:19:37.026Z,96811.91
2022-11-17T06:22:12.176Z,96827.00
2022-11-17T06:24:40.390Z,96821.28
2022-11-17T06:27:07.941Z,96829.34
2022-11-17T06:29:38.195Z,96834.31
2022-11-17T06:32:07.780Z,96844.47
2022-11-17T06:34:35.246Z,96850.19
2022-11-17T06:37:01.809Z,96848.91
2022-11-17T06:39:28.292Z,96831.47
2022-11-17T06:41:54.857Z,96821.28
2022-11-17T06:44:21.266Z,96823.63
2022-11-17T06:46:49.191Z,96828.03
2022-11-17T06:49:16.226Z,96819.97
2022-11-17T06:51:45.374Z,96823.06
2022-11-17T06:54:13.140Z,96824.84
2022-11-17T06:56:39.829Z,96811.31
2022-11-17T06:59:06.377Z,96803.53
2022-11-17T07:01:33.039Z,96793.91
2022-11-17T07:03:59.504Z,96801.97
2022-11-17T07:06:26.134Z,96810.56
2022-11-17T07:08:53.196Z,96813.66
2022-11-17T07:11:22.492Z,96817.56
2022-11-17T07:13:50.056Z,96800.66
2022-11-17T07:16:23.994Z,96784.56
2022-11-17T07:18:51.331Z,96788.19
2022-11-17T07:21:18.151Z,96788.97
2022-11-17T07:23:50.296Z,96794.16
2022-11-17T07:26:19.831Z,96790.22
2022-11-17T07:28:46.935Z,96806.91
2022-11-17T07:31:14.206Z,96810.31
2022-11-17T07:33:41.658Z,96810.34
2022-11-17T07:36:15.279Z,96799.97
2022-11-17T07:38:43.357Z,96803.34
2022-11-17T07:41:14.186Z,96802.81
2022-11-17T07:43:41.251Z,96796.31
2022-11-17T07:48:55.697Z,96802.84
2022-11-17T07:51:23.287Z,96797.66
2022-11-17T07:53:50.499Z,96801.31
2022-11-17T07:56:19.543Z,96790.88
2022-11-17T07:58:49.799Z,96783.88
2022-11-17T08:01:17.067Z,96799.25
2022-11-17T08:03:44.883Z,96796.94
2022-11-17T08:06:13.969Z,96800.31
2022-11-17T08:08:46.159Z,96801.31
2022-11-17T08:11:14.599Z,96806.31
2022-11-17T08:13:46.654Z,96793.03
2022-11-17T08:16:25.011Z,96781.31
2022-11-17T08:18:52.951Z,96787.31
2022-11-17T08:21:24.395Z,96792.75
2022-11-17T08:23:53.387Z,96786.00
2022-11-17T08:26:24.005Z,96791.97
2022-11-17T08:28:58.786Z,96798.75
2022-11-17T08:31:27.683Z,96802.16
2022-11-17T08:33:54.627Z,96798.47
2022-11-17T08:36:21.742Z,96824.00
2022-11-17T08:38:56.550Z,96811.53
2022-11-17T08:41:23.751Z,96808.13
2022-11-17T08:43:51.767Z,96807.63
2022-11-17T08:46:19.663Z,96808.66
2022-11-17T08:48:55.472Z,96820.34
2022-11-17T08:51:34.017Z,96823.25
2022-11-17T08:54:01.940Z,96824.03
2022-11-17T08:56:28.789Z,96821.41
2022-11-17T08:58:56.372Z,96821.66
2022-11-17T09:01:23.556Z,96820.63
2022-11-17T09:03:50.746Z,96823.50
2022-11-17T09:06:20.338Z,96823.25
2022-11-17T09:08:49.163Z,96825.31
2022-11-17T09:11:16.836Z,96821.41
2022-11-17T09:13:45.721Z,96820.88
2022-11-17T09:16:13.128Z,96824.78
2022-11-17T09:18:41.472Z,96817.47
2022-11-17T09:21:11.456Z,96815.13
2022-11-17T09:23:42.582Z,96821.63
2022-11-17T09:26:12.902Z,96820.59
2022-11-17T09:28:40.549Z,96826.53
2022-11-17T09:31:13.997Z,96829.63
2022-11-17T09:33:42.036Z,96827.81
2022-11-17T09:36:09.661Z,96824.97
2022-11-17T09:38:38.369Z,96812.69
2022-11-17T09:41:19.454Z,96803.84
2022-11-17T09:43:57.936Z,96794.94
2022-11-17T09:46:49.578Z,96787.31
2022-11-17T09:49:30.863Z,96788.25
2022-11-17T09:52:07.299Z,96791.34
2022-11-17T09:54:58.150Z,96799.97
2022-11-17T09:58:26.642Z,96796.78
2022-11-17T10:00:54.617Z,96793.16
2022-11-17T10:03:41.966Z,96796.53
2022-11-17T10:06:25.054Z,96786.31
2022-11-17T10:09:08.076Z,96773.56
2022-11-17T10:11:39.309Z,96766.44
2022-11-17T10:14:08.898Z,96765.19
2022-11-17T10:16:37.891Z,96765.97
2022-11-17T10:19:22.730Z,96766.66
2022-11-17T10:21:56.299Z,96769.81
2022-11-17T10:24:41.133Z,96790.13
2022-11-17T10:27:24.814Z,96790.31
2022-11-17T10:30:04.566Z,96783.56
2022-11-17T10:32:49.544Z,96794.19
2022-11-17T10:35:25.130Z,96783.97
2022-11-17T10:37:53.830Z,96793.97
2022-11-17T10:40:25.604Z,96794.16
2022-11-17T10:43:14.630Z,96786.13
2022-11-17T10:45:53.400Z,96783.16
2022-11-17T10:48:29.672Z,96788.97
2022-11-17T10:51:24.489Z,96801.91
2022-11-17T10:54:15.693Z,96787.56
2022-11-17T10:56:47.235Z,96765.78
2022-11-17T10:59:21.544Z,96767.16
2022-11-17T11:01:51.322Z,96767.91
2022-11-17T11:04:39.788Z,96771.09
2022-11-17T11:07:34.282Z,96767.44
2022-11-17T11:10:41.773Z,96774.31
2022-11-17T11:13:14.912Z,96772.53
2022-11-17T11:15:42.040Z,96762.31
2022-11-17T11:18:14.534Z,96766.84
2022-11-17T11:21:00.459Z,96753.97
2022-11-17T11:23:45.467Z,96752.63
2022-11-17T11:26:49.623Z,96746.25
2022-11-17T11:29:32.613Z,96750.47
2022-11-17T11:32:16.895Z,96760.53
2022-11-17T11:34:59.388Z,96745.38
2022-11-17T11:37:45.776Z,96739.97
2022-11-17T11:40:23.409Z,96741.53
2022-11-17T11:43:03.294Z,96731.56
2022-11-17T11:45:38.949Z,96733.63
2022-11-17T11:48:09.921Z,96737.47
2022-11-17T11:50:58.456Z,96740.69
2022-11-17T11:53:31.287Z,96732.13
2022-11-17T11:56:13.202Z,96733.94
2022-11-17T12:01:40.199Z,96731.69
2022-11-17T12:04:25.972Z,96735.28
2022-11-17T12:07:16.783Z,96735.63
2022-11-17T12:10:29.741Z,96725.94
2022-11-17T12:12:57.317Z,96731.44
2022-11-17T12:15:24.070Z,96728.56
2022-11-17T12:18:00.219Z,96722.53
2022-11-17T12:20:39.144Z,96718.34
2022-11-17T12:23:34.009Z,96717.84
2022-11-17T12:26:02.194Z,96718.03
2022-11-17T12:28:39.802Z,96725.50
2022-11-17T12:31:42.128Z,96722.19
2022-11-17T12:34:21.033Z,96733.09
2022-11-17T12:37:15.623Z,96738.19
2022-11-17T12:39:58.561Z,96745.19
2022-11-17T12:42:29.078Z,96749.19
2022-11-17T12:44:58.267Z,96755.16
2022-11-17T12:47:30.601Z,96770.03
2022-11-17T12:50:12.359Z,96776.16
2022-11-17T12:52:57.302Z,96796.22
2022-11-17T12:55:33.066Z,96800.03
2022-11-17T12:58:18.124Z,96817.59
2022-11-17T13:01:30.316Z,96810.19
2022-11-17T13:04:29.579Z,96810.44
2022-11-17T13:07:08.275Z,96797.75
2022-11-17T13:09:36.800Z,96799.53
2022-11-17T13:12:06.119Z,96810.22
2022-11-17T13:14:34.730Z,96821.28
2022-11-17T13:17:02.905Z,96819.22
2022-11-17T13:19:38.538Z,96837.03
2022-11-17T13:22:06.700Z,96831.66
2022-11-17T13:24:39.590Z,96817.59
2022-11-17T13:27:17.679Z,96806.34
2022-11-17T13:29:44.341Z,96810.56
2022-11-17T13:32:17.408Z,96809.81
2022-11-17T13:35:00.594Z,96818.44
2022-11-17T13:37:29.215Z,96818.66
2022-11-17T13:39:57.910Z,96823.00
2022-11-17T13:42:27.782Z,96825.06
2022-11-17T13:44:56.231Z,96826.03
2022-11-17T13:47:39.324Z,96825.59
2022-11-17T13:50:27.198Z,96821.63
2022-11-17T13:53:12.044Z,96816.75
2022-11-17T13:55:45.810Z,96810.09
2022-11-17T13:58:38.546Z,96808.78
2022-11-17T14:01:05.282Z,96803.91
2022-11-17T14:03:38.569Z,96805.84
2022-11-17T14:06:13.650Z,96798.78
2022-11-17T14:08:44.231Z,96801.63
2022-11-17T14:11:10.761Z,96800.63
2022-11-17T14:13:44.482Z,96799.28
2022-11-17T14:16:37.500Z,96799.03
2022-11-17T14:19:25.488Z,96804.25
2022-11-17T14:22:03.804Z,96803.81
2022-11-17T14:24:33.563Z,96810.91
2022-11-17T14:27:01.205Z,96813.81
2022-11-17T14:29:29.429Z,96814.34
2022-11-17T14:31:57.206Z,96803.56
2022-11-17T14:34:23.862Z,96803.00
2022-11-17T14:36:54.525Z,96807.13
2022-11-17T14:39:24.100Z,96799.88
2022-11-17T14:41:51.169Z,96809.59
2022-11-17T14:44:17.902Z,96820.66
2022-11-17T14:46:44.804Z,96821.19
2022-11-17T14:49:11.980Z,96825.69
2022-11-17T14:51:40.902Z,96827.72
2022-11-17T14:54:07.393Z,96827.91
2022-11-17T14:56:34.926Z,96819.81
2022-11-17T14:59:02.350Z,96821.91
2022-11-17T15:01:31.500Z,96825.03
2022-11-17T15:04:15.359Z,96827.97
2022-11-17T15:06:48.397Z,96837.72
2022-11-17T15:09:18.084Z,96838.53
2022-11-17T15:11:44.620Z,96834.94
2022-11-17T15:14:11.265Z,96837.28
2022-11-17T15:16:38.298Z,96828.91
2022-11-17T15:19:04.871Z,96831.84
2022-11-17T15:21:31.583Z,96823.22
2022-11-17T15:23:58.307Z,96828.13
2022-11-17T15:26:25.088Z,96831.53
2022-11-17T15:28:51.650Z,96839.09
2022-11-17T15:31:20.237Z,96830.47
2022-11-17T15:33:48.283Z,96843.28
2022-11-17T15:36:17.118Z,96845.34
2022-11-17T15:38:44.883Z,96849.00
2022-11-17T15:41:13.080Z,96850.63
2022-11-17T15:43:41.018Z,96842.06
2022-11-17T15:46:13.118Z,96851.16
2022-11-17T15:48:44.081Z,96853.78
2022-11-17T15:51:12.737Z,96857.19
2022-11-17T15:53:39.821Z,96856.41
2022-11-17T15:56:08.833Z,96853.53
2022-11-17T15:58:36.572Z,96854.56
2022-11-17T16:01:12.376Z,96854.78
2022-11-17T16:03:40.798Z,96850.91
2022-11-17T16:06:08.555Z,96854.03
2022-11-17T16:08:35.295Z,96866.88
2022-11-17T16:11:02.000Z,96874.97
2022-11-17T16:13:29.345Z,96883.59
2022-11-17T16:15:56.562Z,96874.47
2022-11-17T16:18:23.902Z,96875.19
2022-11-17T16:20:51.344Z,96871.25
2022-11-17T16:23:18.560Z,96865.00
2022-11-17T16:25:48.446Z,96872.28
2022-11-17T16:28:16.830Z,96882.44
2022-11-17T16:30:43.695Z,96883.47
2022-11-17T16:33:12.357Z,96882.44
2022-11-17T16:35:40.481Z,96884.56
2022-11-17T16:38:08.178Z,96887.97
2022-11-17T16:40:37.468Z,96881.19
2022-11-17T16:43:04.105Z,96878.59
2022-11-17T16:45:30.923Z,96885.63
2022-11-17T16:47:59.252Z,96883.28
2022-11-17T16:50:29.032Z,96882.78
2022-11-17T16:52:55.504Z,96875.03
2022-11-17T16:55:22.023Z,96878.91
2022-11-17T16:57:51.879Z,96878.66
2022-11-17T17:00:18.900Z,96873.69
2022-11-17T17:02:49.955Z,96862.78
2022-11-17T17:05:16.810Z,96863.09
2022-11-17T17:07:43.551Z,96855.50
2022-11-17T17:10:10.315Z,96864.63
2022-11-17T17:12:37.099Z,96868.50
2022-11-17T17:15:04.684Z,96869.53
2022-11-17T17:17:33.618Z,96871.34
2022-11-17T17:20:00.056Z,96873.47
2022-11-17T17:22:26.693Z,96885.69
2022-11-17T17:24:53.394Z,96887.50
2022-11-17T17:27:20.025Z,96887.22
2022-11-17T17:29:46.813Z,96877.34
2022-11-17T17:32:13.221Z,96866.97
2022-11-17T17:34:39.832Z,96874.81
2022-11-17T17:37:06.468Z,96867.75
2022-11-17T17:39:34.302Z,96862.53
2022-11-17T17:42:00.857Z,96860.44
2022-11-17T17:44:27.353Z,96852.84
2022-11-17T17:46:57.173Z,96867.69
2022-11-17T17:49:23.651Z,96864.84
2022-11-17T17:51:50.157Z,96866.94
2022-11-17T17:54:21.300Z,96866.44
2022-11-17T17:56:48.312Z,96868.78
2022-11-17T17:59:15.958Z,96863.28
2022-11-17T18:01:47.008Z,96868.25
2022-11-17T18:04:16.182Z,96857.09
2022-11-17T18:06:47.221Z,96856.56
2022-11-17T18:09:15.629Z,96858.63
2022-11-17T18:11:46.089Z,96839.03
2022-11-17T18:14:13.396Z,96832.25
2022-11-17T18:16:40.440Z,96818.72
2022-11-17T18:19:08.606Z,96819.75
2022-11-17T18:21:35.646Z,96817.69
2022-11-17T18:24:02.998Z,96828.91
2022-11-17T18:26:33.671Z,96837.81
2022-11-17T18:29:02.679Z,96837.25
2022-11-17T18:31:31.677Z,96834.41
2022-11-17T18:34:01.408Z,96835.19
2022-11-17T18:39:16.822Z,96821.69
2022-11-17T18:42:06.643Z,96817.25
2022-11-17T18:44:33.616Z,96813.03
2022-11-17T18:47:02.993Z,96818.78
2022-11-17T18:49:30.935Z,96824.25
2022-11-17T18:52:03.653Z,96833.88
2022-11-17T18:54:30.384Z,96832.59
2022-11-17T18:56:57.454Z,96843.28
2022-11-17T18:59:24.366Z,96855.28
2022-11-17T19:01:58.228Z,96856.84
2022-11-17T19:04:26.360Z,96882.59
2022-11-17T19:06:56.965Z,96893.03
2022-11-17T19:09:27.090Z,96880.28
2022-11-17T19:11:54.556Z,96860.75
2022-11-17T19:14:21.304Z,96860.22
2022-11-17T19:16:51.297Z,96860.19
2022-11-17T19:19:19.536Z,96857.31
2022-11-17T19:21:50.043Z,96860.19
2022-11-17T19:24:17.251Z,96858.34
2022-11-17T19:26:44.147Z,96857.03
2022-11-17T19:29:17.263Z,96864.31
2022-11-17T19:31:46.289Z,96865.66
2022-11-17T19:34:20.465Z,96857.81
2022-11-17T19:36:52.088Z,96855.22
2022-11-17T19:39:19.306Z,96864.38
2022-11-17T19:41:47.931Z,96858.59
2022-11-17T19:44:14.882Z,96859.94
2022-11-17T19:46:42.843Z,96880.28
2022-11-17T19:49:12.936Z,96882.88
2022-11-17T19:51:41.476Z,96886.25
2022-11-17T19:54:09.930Z,96887.03
2022-11-17T19:56:36.899Z,96898.00
2022-11-17T19:59:03.745Z,96888.34
2022-11-17T20:01:33.013Z,96882.59
2022-11-17T20:04:01.193Z,96885.22
2022-11-17T20:06:32.195Z,96896.44
2022-11-17T20:08:59.211Z,96903.19
2022-11-17T20:11:30.787Z,96908.41
2022-11-17T20:13:58.260Z,96909.72
2022-11-17T20:16:29.543Z,96893.28
2022-11-17T20:18:58.410Z,96896.44
2022-11-17T20:21:27.707Z,96892.00
2022-11-17T20:23:59.482Z,96901.88
2022-11-17T20:26:29.550Z,96893.31
2022-11-17T20:28:58.437Z,96887.56
2022-11-17T20:31:28.662Z,96878.44
2022-11-17T20:33:57.896Z,96872.97
2022-11-17T20:36:25.327Z,96873.75
2022-11-17T20:38:56.988Z,96885.75
2022-11-17T20:41:25.039Z,96890.44
2022-11-17T20:43:55.988Z,96882.91
2022-11-17T20:46:24.260Z,96880.78
2022-11-17T20:48:52.593Z,96882.09
2022-11-17T20:54:03.633Z,96878.72
2022-11-17T20:56:31.245Z,96875.84
2022-11-17T20:59:19.625Z,96874.53
2022-11-17T21:01:50.493Z,96873.50
2022-11-17T21:04:20.621Z,96881.31
2022-11-17T21:06:48.671Z,96880.25
2022-11-17T21:09:18.640Z,96880.78
2022-11-17T21:17:48.529Z,96891.22
2022-11-17T21:20:18.184Z,96877.41
2022-11-17T21:22:54.918Z,96879.50
2022-11-17T21:25:23.525Z,96889.66
2022-11-17T21:27:51.613Z,96882.09
2022-11-17T21:30:23.659Z,96880.56
2022-11-17T21:32:50.811Z,96882.09
2022-11-17T21:35:18.737Z,96886.53
2022-11-17T21:37:47.589Z,96884.97
2022-11-17T21:45:39.324Z,96886.28
2022-11-17T21:48:07.825Z,96884.72
2022-11-17T21:50:37.702Z,96888.88
2022-11-17T21:53:11.199Z,96889.13
2022-11-17T21:55:44.781Z,96891.72
2022-11-17T21:58:11.585Z,96890.72
2022-11-17T22:00:38.289Z,96884.97
2022-11-17T22:03:04.915Z,96896.16
2022-11-17T22:05:31.557Z,96886.78
2022-11-17T22:07:59.060Z,96885.50
2022-11-17T22:10:25.831Z,96889.66
2022-11-17T22:12:52.389Z,96892.00
2022-11-17T22:15:18.846Z,96894.59
2022-11-17T22:17:45.427Z,96895.38
2022-11-17T22:20:11.951Z,96894.88
2022-11-17T22:22:38.504Z,96900.63
2022-11-17T22:25:29.968Z,96908.44
2022-11-17T22:27:52.543Z,96908.16
2022-11-17T22:30:19.050Z,96910.00
2022-11-17T22:32:45.632Z,96909.72
2022-11-17T22:35:12.236Z,96917.53
2022-11-17T22:37:38.862Z,96923.28
2022-11-17T22:40:05.881Z,96924.84
2022-11-17T22:42:32.471Z,96925.34
2022-11-17T22:44:59.150Z,96926.41
2022-11-17T22:47:25.674Z,96931.63
2022-11-17T22:49:52.144Z,96935.78
2022-11-17T22:52:18.642Z,96940.19
2022-11-17T22:54:45.081Z,96943.06
2022-11-17T22:57:11.518Z,96938.63
2022-11-17T22:59:38.172Z,96945.94
2022-11-17T23:02:04.754Z,96942.53
2022-11-17T23:04:31.252Z,96946.72
2022-11-17T23:06:57.904Z,96942.81
2022-11-17T23:09:24.687Z,96933.16
2022-11-17T23:11:51.247Z,96938.13
2022-11-17T23:14:17.736Z,96932.41
2022-11-17T23:16:44.289Z,96936.28
2022-11-17T23:19:14.397Z,96936.56
2022-11-17T23:21:41.310Z,96938.63
2022-11-17T23:24:10.351Z,96931.06
2022-11-17T23:26:36.864Z,96930.56
2022-11-17T23:29:03.504Z,96929.25
2022-11-17T23:31:30.197Z,96937.06
2022-11-17T23:33:56.864Z,96928.97
2022-11-17T23:36:23.672Z,96936.00
2022-11-17T23:38:51.255Z,96934.72
2022-11-17T23:41:20.317Z,96931.06
2022-11-17T23:43:50.757Z,96923.00
2022-11-17T23:46:19.691Z,96925.06
2022-11-17T23:48:46.600Z,96916.22
2022-11-17T23:51:19.170Z,96921.41
2022-11-17T23:53:46.879Z,96921.69
2022-11-17T23:56:15.295Z,96917.25
2022-11-17T23:58:42.225Z,96924.03
